createdAt,value
2023-05-19T00:01:28.229Z,4.68
2023-05-19T00:06:31.783Z,6.60
2023-05-19T00:11:36.152Z,6.93
2023-05-19T00:16:38.853Z,4.22
2023-05-19T00:21:40.308Z,4.47
2023-05-19T00:26:42.450Z,8.55
2023-05-19T00:31:43.562Z,5.97
2023-05-19T00:36:44.416Z,5.85
2023-05-19T00:41:49.251Z,4.63
2023-05-19T00:46:50.096Z,6.65
2023-05-19T00:51:50.929Z,3.30
2023-05-19T00:56:52.960Z,5.95
2023-05-19T01:01:54.214Z,5.55
2023-05-19T01:06:55.196Z,6.88
2023-05-19T01:11:57.300Z,6.93
2023-05-19T01:17:05.654Z,5.13
2023-05-19T01:22:29.315Z,4.68
2023-05-19T01:28:11.706Z,7.13
2023-05-19T01:33:16.278Z,8.05
2023-05-19T01:38:18.919Z,5.93
2023-05-19T01:43:22.269Z,2.85
2023-05-19T01:48:24.541Z,6.18
2023-05-19T01:53:25.490Z,6.80
2023-05-19T01:58:35.375Z,3.85
2023-05-19T02:03:49.057Z,11.38
2023-05-19T02:08:59.146Z,4.38
2023-05-19T02:14:03.783Z,6.72
2023-05-19T02:19:06.005Z,6.43
2023-05-19T02:24:08.163Z,6.75
2023-05-19T02:29:08.831Z,8.60
2023-05-19T02:34:10.958Z,6.25
2023-05-19T02:39:12.195Z,8.52
2023-05-19T02:44:12.805Z,5.18
2023-05-19T02:49:14.858Z,5.53
2023-05-19T02:54:15.502Z,6.70
2023-05-19T02:59:16.126Z,4.72
2023-05-19T03:04:20.066Z,4.45
2023-05-19T03:09:20.963Z,4.65
2023-05-19T03:14:23.884Z,4.95
2023-05-19T03:19:26.415Z,5.88
2023-05-19T03:24:27.168Z,6.43
2023-05-19T03:29:27.786Z,7.30
2023-05-19T03:34:29.755Z,3.70
2023-05-19T03:39:32.166Z,7.70
2023-05-19T03:44:32.849Z,10.32
2023-05-19T03:49:35.835Z,6.60
2023-05-19T03:54:59.292Z,5.15
2023-05-19T03:59:59.987Z,4.40
2023-05-19T04:05:04.690Z,5.18
2023-05-19T04:10:07.109Z,5.43
2023-05-19T04:15:11.369Z,6.72
2023-05-19T04:20:14.244Z,8.73
2023-05-19T04:25:15.041Z,5.78
2023-05-19T04:30:22.096Z,9.80
2023-05-19T04:35:24.255Z,8.13
2023-05-19T04:40:25.085Z,6.43
2023-05-19T04:45:26.847Z,6.47
2023-05-19T04:50:32.762Z,7.45
2023-05-19T04:55:34.738Z,7.97
2023-05-19T05:00:36.600Z,6.88
2023-05-19T05:05:42.221Z,3.45
2023-05-19T05:10:43.557Z,6.55
2023-05-19T05:15:44.783Z,8.70
2023-05-19T05:20:48.250Z,4.82
2023-05-19T05:25:49.944Z,7.38
2023-05-19T05:30:51.017Z,11.75
2023-05-19T05:35:53.553Z,5.55
2023-05-19T05:40:54.365Z,11.85
2023-05-19T05:45:55.202Z,10.07
2023-05-19T05:50:58.173Z,11.20
2023-05-19T05:56:03.338Z,5.35
2023-05-19T06:01:12.954Z,5.55
2023-05-19T06:06:15.635Z,9.25
2023-05-19T06:11:16.358Z,6.97
2023-05-19T06:16:17.458Z,5.72
2023-05-19T06:21:22.766Z,6.53
2023-05-19T06:26:23.565Z,4.63
2023-05-19T06:31:26.508Z,7.53
2023-05-19T06:36:31.392Z,6.50
2023-05-19T06:41:32.710Z,6.07
2023-05-19T06:46:33.558Z,4.35
2023-05-19T06:51:35.882Z,5.43
2023-05-19T06:56:36.516Z,7.70
2023-05-19T07:01:37.264Z,7.63
2023-05-19T07:06:39.589Z,13.23
2023-05-19T07:11:40.332Z,8.15
2023-05-19T07:16:42.758Z,7.45
2023-05-19T07:21:44.771Z,5.82
2023-05-19T07:26:45.492Z,5.70
2023-05-19T07:31:46.187Z,6.75
2023-05-19T07:36:48.205Z,8.82
2023-05-19T07:41:52.706Z,4.53
2023-05-19T07:46:53.475Z,8.18
2023-05-19T07:51:55.578Z,6.13
2023-05-19T07:56:56.211Z,6.28
2023-05-19T08:01:56.911Z,4.88
2023-05-19T08:06:59.028Z,6.35
2023-05-19T08:12:01.453Z,6.28
2023-05-19T08:17:02.188Z,4.55
2023-05-19T08:22:04.330Z,9.70
2023-05-19T08:27:05.554Z,7.85
2023-05-19T08:32:06.716Z,6.45
2023-05-19T08:37:08.873Z,4.20
2023-05-19T08:42:10.081Z,6.03
2023-05-19T08:47:14.050Z,9.95
2023-05-19T08:52:28.735Z,9.23
2023-05-19T08:57:30.073Z,7.70
2023-05-19T09:02:31.685Z,4.85
2023-05-19T09:07:35.006Z,4.07
2023-05-19T09:12:35.864Z,6.53
2023-05-19T09:17:36.930Z,8.77
2023-05-19T09:22:45.197Z,4.00
2023-05-19T09:27:47.451Z,9.10
2023-05-19T09:32:48.232Z,4.53
2023-05-19T09:37:50.289Z,4.30
2023-05-19T09:42:51.350Z,4.93
2023-05-19T09:47:52.215Z,9.63
2023-05-19T09:52:54.485Z,5.97
2023-05-19T09:57:56.350Z,5.72
2023-05-19T10:02:58.244Z,6.10
2023-05-19T10:08:00.451Z,4.22
2023-05-19T10:13:02.176Z,4.68
2023-05-19T10:18:04.320Z,6.30
2023-05-19T10:23:06.633Z,8.90
2023-05-19T10:28:12.404Z,6.10
2023-05-19T10:33:17.522Z,5.72
2023-05-19T10:38:29.048Z,9.80
2023-05-19T10:43:44.844Z,5.97
2023-05-19T10:48:47.080Z,6.25
2023-05-19T10:53:50.183Z,9.88
2023-05-19T10:58:52.133Z,7.18
2023-05-19T11:03:54.094Z,5.75
2023-05-19T11:08:58.574Z,6.32
2023-05-19T11:14:01.473Z,5.70
2023-05-19T11:19:02.247Z,4.65
2023-05-19T11:24:08.711Z,5.82
2023-05-19T11:29:10.181Z,6.90
2023-05-19T11:34:11.299Z,4.32
2023-05-19T11:39:13.512Z,10.43
2023-05-19T11:44:14.163Z,4.80
2023-05-19T11:49:18.418Z,4.95
2023-05-19T11:54:20.510Z,4.85
2023-05-19T11:59:31.759Z,6.97
2023-05-19T12:04:34.135Z,4.15
2023-05-19T12:09:36.956Z,4.43
2023-05-19T12:14:38.644Z,2.92
2023-05-19T12:19:39.432Z,3.20
2023-05-19T12:24:42.693Z,7.70
2023-05-19T12:29:43.437Z,5.88
2023-05-19T12:34:44.168Z,6.85
2023-05-19T12:39:46.598Z,8.43
2023-05-19T12:44:50.104Z,8.60
2023-05-19T12:49:57.257Z,7.63
2023-05-19T12:55:05.105Z,7.57
2023-05-19T13:00:10.591Z,8.27
2023-05-19T13:05:11.273Z,7.03
2023-05-19T13:10:13.353Z,9.60
2023-05-19T13:15:14.198Z,7.28
2023-05-19T13:20:15.071Z,8.52
2023-05-19T13:25:17.534Z,5.57
2023-05-19T13:30:18.719Z,6.45
2023-05-19T13:35:19.468Z,9.63
2023-05-19T13:40:23.012Z,8.02
2023-05-19T13:45:23.692Z,5.38
2023-05-19T13:50:24.346Z,9.65
2023-05-19T13:55:27.402Z,5.65
2023-05-19T14:00:28.472Z,5.07
2023-05-19T14:05:30.954Z,6.10
2023-05-19T14:10:33.398Z,7.85
2023-05-19T14:15:37.818Z,8.35
2023-05-19T14:20:38.797Z,11.38
2023-05-19T14:25:40.983Z,5.22
2023-05-19T14:30:41.620Z,5.88
2023-05-19T14:35:42.281Z,6.18
2023-05-19T14:40:45.038Z,5.28
2023-05-19T14:45:45.815Z,5.85
2023-05-19T14:50:48.245Z,7.75
2023-05-19T14:55:50.285Z,14.05
2023-05-19T15:00:50.967Z,6.30
2023-05-19T15:05:51.673Z,10.00
2023-05-19T15:10:53.612Z,7.60
2023-05-19T15:16:08.222Z,7.32
2023-05-19T15:21:15.631Z,8.45
2023-05-19T15:26:17.863Z,7.90
2023-05-19T15:31:18.829Z,9.93
2023-05-19T15:36:19.564Z,7.95
2023-05-19T15:41:21.817Z,11.45
2023-05-19T15:46:22.740Z,6.63
2023-05-19T15:51:23.643Z,6.22
2023-05-19T15:56:25.981Z,7.50
2023-05-19T16:01:27.217Z,7.35
2023-05-19T16:06:28.109Z,12.27
2023-05-19T16:11:30.070Z,16.58
2023-05-19T16:16:30.772Z,17.02
2023-05-19T16:21:31.612Z,7.18
2023-05-19T16:26:34.387Z,15.88
2023-05-19T16:31:35.111Z,10.35
2023-05-19T16:36:36.491Z,13.05
2023-05-19T16:41:38.535Z,6.15
2023-05-19T16:46:39.172Z,13.93
2023-05-19T16:51:39.824Z,10.25
2023-05-19T16:56:41.784Z,9.00
2023-05-19T17:01:42.455Z,7.95
2023-05-19T17:06:43.246Z,8.27
2023-05-19T17:11:45.202Z,6.55
2023-05-19T17:16:46.686Z,7.63
2023-05-19T17:21:47.382Z,6.97
2023-05-19T17:26:49.300Z,8.43
2023-05-19T17:31:49.965Z,8.07
2023-05-19T17:36:50.662Z,11.05
2023-05-19T17:41:52.688Z,13.82
2023-05-19T17:46:53.403Z,5.68
2023-05-19T17:51:54.697Z,6.63
2023-05-19T17:56:59.492Z,6.72
2023-05-19T18:02:00.686Z,6.80
2023-05-19T18:07:02.901Z,7.63
2023-05-19T18:12:05.599Z,5.30
2023-05-19T18:17:06.584Z,10.88
2023-05-19T18:22:07.318Z,9.32
2023-05-19T18:27:09.285Z,7.25
2023-05-19T18:32:10.017Z,6.85
2023-05-19T18:37:10.887Z,8.80
2023-05-19T18:42:12.955Z,8.18
2023-05-19T18:47:13.740Z,7.53
2023-05-19T18:52:14.503Z,8.45
2023-05-19T18:57:16.541Z,7.82
2023-05-19T19:02:17.193Z,10.98
2023-05-19T19:07:17.828Z,10.57
2023-05-19T19:12:20.507Z,9.63
2023-05-19T19:17:21.487Z,10.45
2023-05-19T19:22:22.303Z,15.88
2023-05-19T19:27:26.170Z,12.30
2023-05-19T19:32:26.945Z,13.02
2023-05-19T19:37:27.631Z,12.60
2023-05-19T19:42:31.755Z,11.38
2023-05-19T19:47:32.714Z,13.20
2023-05-19T19:52:33.398Z,15.05
2023-05-19T19:57:35.678Z,13.50
2023-05-19T20:02:45.587Z,15.15
2023-05-19T20:07:56.265Z,14.88
2023-05-19T20:12:59.300Z,17.35
2023-05-19T20:18:00.045Z,15.68
2023-05-19T20:23:00.736Z,16.90
2023-05-19T20:28:03.017Z,18.23
2023-05-19T20:33:03.788Z,15.45
2023-05-19T20:38:04.603Z,16.83
2023-05-19T20:43:06.615Z,16.77
2023-05-19T20:48:07.457Z,17.17
2023-05-19T20:53:08.273Z,14.60
2023-05-19T20:58:10.461Z,16.63
2023-05-19T21:03:11.574Z,18.83
2023-05-19T21:08:12.868Z,23.77
2023-05-19T21:13:15.163Z,18.50
2023-05-19T21:18:15.877Z,15.30
2023-05-19T21:23:16.493Z,15.48
2023-05-19T21:28:18.488Z,16.58
2023-05-19T21:33:19.207Z,17.48
2023-05-19T21:38:23.805Z,15.18
2023-05-19T21:43:26.278Z,15.02
2023-05-19T21:48:26.908Z,16.15
2023-05-19T21:53:27.647Z,17.88
2023-05-19T21:58:29.774Z,17.98
2023-05-19T22:03:30.479Z,14.35
2023-05-19T22:08:31.137Z,17.77
2023-05-19T22:13:34.006Z,15.38
2023-05-19T22:18:34.755Z,18.60
2023-05-19T22:23:35.448Z,14.77
2023-05-19T22:28:37.472Z,15.45
2023-05-19T22:33:38.076Z,16.02
2023-05-19T22:38:38.769Z,16.58
2023-05-19T22:43:40.776Z,16.60
2023-05-19T22:48:41.383Z,16.70
2023-05-19T22:53:42.637Z,17.02
2023-05-19T22:58:44.586Z,16.63
2023-05-19T23:03:45.459Z,17.30
2023-05-19T23:08:46.920Z,18.10
2023-05-19T23:13:48.910Z,14.57
2023-05-19T23:18:49.578Z,16.42
2023-05-19T23:23:50.624Z,21.40
2023-05-19T23:28:52.555Z,19.27
2023-05-19T23:33:53.138Z,21.52
2023-05-19T23:38:53.753Z,21.42
2023-05-19T23:43:55.767Z,20.20
2023-05-19T23:48:56.399Z,21.02
2023-05-19T23:53:57.020Z,20.17
2023-05-19T23:59:00.764Z,21.02
